createdAt,value
2018-06-03T00:00:57.695Z,4.87
2018-06-03T00:03:29.643Z,5.00
2018-06-03T00:06:01.663Z,4.60
2018-06-03T00:08:33.616Z,5.33
2018-06-03T00:11:05.724Z,5.40
2018-06-03T00:13:37.687Z,5.90
2018-06-03T00:16:09.666Z,5.73
2018-06-03T00:18:41.623Z,5.70
2018-06-03T00:21:25.084Z,5.40
2018-06-03T00:23:57.053Z,5.67
2018-06-03T00:26:29.019Z,5.30
2018-06-03T00:29:00.990Z,5.60
2018-06-03T00:31:32.996Z,5.40
2018-06-03T00:34:04.976Z,6.30
2018-06-03T00:36:45.507Z,6.07
2018-06-03T00:39:17.443Z,5.77
2018-06-03T00:41:49.423Z,5.90
2018-06-03T00:44:21.387Z,5.23
2018-06-03T00:46:53.369Z,5.10
2018-06-03T00:49:25.336Z,5.33
2018-06-03T00:51:57.331Z,5.07
2018-06-03T00:54:29.276Z,4.90
2018-06-03T00:57:09.102Z,5.33
2018-06-03T00:59:41.051Z,5.87
2018-06-03T01:02:13.041Z,4.60
2018-06-03T01:04:44.999Z,5.20
2018-06-03T01:07:16.968Z,4.57
2018-06-03T01:09:48.924Z,4.83
2018-06-03T01:12:20.896Z,5.80
2018-06-03T01:14:52.851Z,5.67
2018-06-03T01:17:24.812Z,5.60
2018-06-03T01:19:56.808Z,4.63
2018-06-03T01:22:28.770Z,5.47
2018-06-03T01:25:01.982Z,5.57
2018-06-03T01:27:33.967Z,4.90
2018-06-03T01:30:05.936Z,4.80
2018-06-03T01:32:37.919Z,5.60
2018-06-03T01:35:10.475Z,5.87
2018-06-03T01:37:42.454Z,5.80
2018-06-03T01:40:14.435Z,6.30
2018-06-03T01:42:46.439Z,6.10
2018-06-03T01:45:18.409Z,5.70
2018-06-03T01:47:57.071Z,5.53
2018-06-03T01:50:29.031Z,4.93
2018-06-03T01:53:01.012Z,5.20
2018-06-03T01:55:33.007Z,5.57
2018-06-03T01:58:04.977Z,5.20
2018-06-03T02:00:36.931Z,5.17
2018-06-03T02:03:08.881Z,6.00
2018-06-03T02:05:40.824Z,6.17
2018-06-03T02:08:12.801Z,6.03
2018-06-03T02:10:44.756Z,6.10
2018-06-03T02:13:16.756Z,5.87
2018-06-03T02:15:48.736Z,5.47
2018-06-03T02:18:20.728Z,6.10
2018-06-03T02:20:52.696Z,5.53
2018-06-03T02:23:24.675Z,5.70
2018-06-03T02:25:56.640Z,6.13
2018-06-03T02:28:28.721Z,6.00
2018-06-03T02:31:00.668Z,5.70
2018-06-03T02:33:32.629Z,5.83
2018-06-03T02:36:06.081Z,5.90
2018-06-03T02:38:38.055Z,6.67
2018-06-03T02:41:10.027Z,6.40
2018-06-03T02:43:42.020Z,5.83
2018-06-03T02:46:13.964Z,6.10
2018-06-03T02:48:45.931Z,5.50
2018-06-03T02:51:17.877Z,5.70
2018-06-03T02:53:49.895Z,5.80
2018-06-03T02:56:21.915Z,5.77
2018-06-03T02:58:53.899Z,5.90
2018-06-03T03:01:25.854Z,6.33
2018-06-03T03:03:57.825Z,6.33
2018-06-03T03:06:29.783Z,6.67
2018-06-03T03:09:01.777Z,6.53
2018-06-03T03:11:33.744Z,6.60
2018-06-03T03:14:05.740Z,6.60
2018-06-03T03:16:37.711Z,6.33
2018-06-03T03:19:09.683Z,6.50
2018-06-03T03:21:41.643Z,6.90
2018-06-03T03:24:13.619Z,6.67
2018-06-03T03:26:45.584Z,7.07
2018-06-03T03:29:17.552Z,6.40
2018-06-03T03:31:49.507Z,6.47
2018-06-03T03:34:21.500Z,6.60
2018-06-03T03:36:53.468Z,6.47
2018-06-03T03:39:25.452Z,6.80
2018-06-03T03:41:57.415Z,7.10
2018-06-03T03:44:29.375Z,8.30
2018-06-03T03:47:01.357Z,6.80
2018-06-03T03:49:33.328Z,6.90
2018-06-03T03:52:05.421Z,6.40
2018-06-03T03:54:37.375Z,7.27
2018-06-03T03:57:09.319Z,6.43
2018-06-03T03:59:41.279Z,7.23
2018-06-03T04:02:13.248Z,7.33
2018-06-03T04:04:45.232Z,7.33
2018-06-03T04:07:17.188Z,7.33
2018-06-03T04:09:49.181Z,6.40
2018-06-03T04:12:21.135Z,6.70
2018-06-03T04:14:53.095Z,7.23
2018-06-03T04:17:25.064Z,6.47
2018-06-03T04:19:57.047Z,6.87
2018-06-03T04:22:29.018Z,7.00
2018-06-03T04:25:00.980Z,6.40
2018-06-03T04:27:32.959Z,5.90
2018-06-03T04:30:04.943Z,5.13
2018-06-03T04:32:36.920Z,5.33
2018-06-03T04:35:08.954Z,6.07
2018-06-03T04:37:40.900Z,5.97
2018-06-03T04:40:12.892Z,5.80
2018-06-03T04:42:44.867Z,5.60
2018-06-03T04:45:16.874Z,5.23
2018-06-03T04:47:48.839Z,6.30
2018-06-03T04:50:20.788Z,6.07
2018-06-03T04:52:52.727Z,6.37
2018-06-03T04:55:24.708Z,5.53
2018-06-03T04:57:56.666Z,5.83
2018-06-03T05:00:28.618Z,5.53
2018-06-03T05:03:00.629Z,6.20
2018-06-03T05:05:32.616Z,5.47
2018-06-03T05:08:04.605Z,5.53
2018-06-03T05:10:36.583Z,5.27
2018-06-03T05:13:08.540Z,5.20
2018-06-03T05:15:40.539Z,4.80
2018-06-03T05:18:12.552Z,4.60
2018-06-03T05:20:44.503Z,5.67
2018-06-03T05:23:16.459Z,5.47
2018-06-03T05:25:48.403Z,5.80
2018-06-03T05:28:20.374Z,5.30
2018-06-03T05:30:52.339Z,5.10
2018-06-03T05:33:24.300Z,5.20
2018-06-03T05:35:56.258Z,5.03
2018-06-03T05:38:28.228Z,6.40
2018-06-03T05:41:00.210Z,5.43
2018-06-03T05:43:32.168Z,4.60
2018-06-03T05:46:04.155Z,4.60
2018-06-03T05:48:36.098Z,5.30
2018-06-03T05:51:08.058Z,4.13
2018-06-03T05:53:40.005Z,5.17
2018-06-03T05:56:11.987Z,4.63
2018-06-03T05:58:43.955Z,4.70
2018-06-03T06:01:15.924Z,5.03
2018-06-03T06:03:47.864Z,4.40
2018-06-03T06:06:19.872Z,5.10
2018-06-03T06:08:51.819Z,4.47
2018-06-03T06:11:23.791Z,5.07
2018-06-03T06:13:55.751Z,4.83
2018-06-03T06:16:27.739Z,5.10
2018-06-03T06:18:59.702Z,4.03
2018-06-03T06:21:31.693Z,4.07
2018-06-03T06:24:03.751Z,4.53
2018-06-03T06:26:35.741Z,4.70
2018-06-03T06:29:07.691Z,4.00
2018-06-03T06:31:39.662Z,4.27
2018-06-03T06:34:11.629Z,4.57
2018-06-03T06:36:43.629Z,4.00
2018-06-03T06:39:15.587Z,4.63
2018-06-03T06:41:47.552Z,4.73
2018-06-03T06:44:19.528Z,4.40
2018-06-03T06:46:51.564Z,4.43
2018-06-03T06:49:23.527Z,4.20
2018-06-03T06:51:55.508Z,4.20
2018-06-03T06:54:27.463Z,4.20
2018-06-03T06:56:59.429Z,4.33
2018-06-03T06:59:31.367Z,4.70
2018-06-03T07:02:03.327Z,4.60
2018-06-03T07:04:35.283Z,4.77
2018-06-03T07:07:07.252Z,3.50
2018-06-03T07:09:39.227Z,5.10
2018-06-03T07:12:11.215Z,5.97
2018-06-03T07:14:43.159Z,4.23
2018-06-03T07:17:15.115Z,4.07
2018-06-03T07:19:47.072Z,4.83
2018-06-03T07:22:19.040Z,5.10
2018-06-03T07:24:50.995Z,4.03
2018-06-03T07:27:22.962Z,4.53
2018-06-03T07:29:54.924Z,4.10
2018-06-03T07:32:26.916Z,4.30
2018-06-03T07:34:58.908Z,4.10
2018-06-03T07:37:30.900Z,4.50
2018-06-03T07:40:02.922Z,5.00
2018-06-03T07:42:34.929Z,4.70
2018-06-03T07:45:06.891Z,3.80
2018-06-03T07:47:38.899Z,4.30
2018-06-03T07:50:10.859Z,4.10
2018-06-03T07:52:42.844Z,4.40
2018-06-03T07:55:14.800Z,3.67
2018-06-03T07:57:46.811Z,3.97
2018-06-03T08:00:18.775Z,3.53
2018-06-03T08:02:50.743Z,3.60
2018-06-03T08:05:22.687Z,3.93
2018-06-03T08:07:54.700Z,3.73
2018-06-03T08:10:26.667Z,4.47
2018-06-03T08:12:58.675Z,3.40
2018-06-03T08:15:30.636Z,3.37
2018-06-03T08:18:02.643Z,4.03
2018-06-03T08:20:34.588Z,3.47
2018-06-03T08:23:06.575Z,2.93
2018-06-03T08:25:38.563Z,3.80
2018-06-03T08:28:10.955Z,3.90
2018-06-03T08:30:42.918Z,2.67
2018-06-03T08:33:14.935Z,3.77
2018-06-03T08:35:46.892Z,3.10
2018-06-03T08:38:18.860Z,3.07
2018-06-03T08:40:50.828Z,3.43
2018-06-03T08:43:22.850Z,3.20
2018-06-03T08:45:54.795Z,3.67
2018-06-03T08:48:26.828Z,3.10
2018-06-03T08:50:58.804Z,2.77
2018-06-03T08:53:30.817Z,3.10
2018-06-03T08:56:02.891Z,3.30
2018-06-03T08:58:34.867Z,2.67
2018-06-03T09:01:06.831Z,3.00
2018-06-03T09:03:38.841Z,3.00
2018-06-03T09:06:10.798Z,3.10
2018-06-03T09:08:42.766Z,2.90
2018-06-03T09:11:14.781Z,2.80
2018-06-03T09:13:47.451Z,2.97
2018-06-03T09:16:19.423Z,3.10
2018-06-03T09:18:51.418Z,2.80
2018-06-03T09:21:23.961Z,3.17
2018-06-03T09:23:55.947Z,3.00
2018-06-03T09:26:27.893Z,2.60
2018-06-03T09:28:59.878Z,3.70
2018-06-03T09:31:31.863Z,3.13
2018-06-03T09:34:03.847Z,3.20
2018-06-03T09:36:35.808Z,3.70
2018-06-03T09:39:08.264Z,3.10
2018-06-03T09:41:40.280Z,2.83
2018-06-03T09:44:12.270Z,2.70
2018-06-03T09:46:44.268Z,3.40
2018-06-03T09:49:16.248Z,2.43
2018-06-03T09:51:48.231Z,2.50
2018-06-03T09:54:20.216Z,2.63
2018-06-03T09:56:52.205Z,2.60
2018-06-03T09:59:24.175Z,2.80
2018-06-03T10:01:56.139Z,2.60
2018-06-03T10:04:28.704Z,2.33
2018-06-03T10:07:00.687Z,2.93
2018-06-03T10:09:32.672Z,2.77
2018-06-03T10:12:04.704Z,2.77
2018-06-03T10:14:36.666Z,2.57
2018-06-03T10:17:08.692Z,2.07
2018-06-03T10:19:40.667Z,2.93
2018-06-03T10:22:12.620Z,3.13
2018-06-03T10:24:44.671Z,2.30
2018-06-03T10:27:16.624Z,2.60
2018-06-03T10:29:48.655Z,2.53
2018-06-03T10:32:20.676Z,2.43
2018-06-03T10:34:52.663Z,2.63
2018-06-03T10:37:24.640Z,2.47
2018-06-03T10:39:56.703Z,2.40
2018-06-03T10:42:28.712Z,3.00
2018-06-03T10:45:00.784Z,2.50
2018-06-03T10:48:36.188Z,2.80
2018-06-03T10:51:08.187Z,2.30
2018-06-03T10:53:40.160Z,2.47
2018-06-03T10:56:12.132Z,2.67
2018-06-03T10:58:44.125Z,2.73
2018-06-03T11:01:16.087Z,2.60
2018-06-03T11:03:48.050Z,3.40
2018-06-03T11:06:20.019Z,2.20
2018-06-03T11:08:51.987Z,3.43
2018-06-03T11:11:23.955Z,2.70
2018-06-03T11:13:55.917Z,2.87
2018-06-03T11:16:27.904Z,2.53
2018-06-03T11:18:59.963Z,2.77
2018-06-03T11:21:31.943Z,2.40
2018-06-03T11:24:03.996Z,2.77
2018-06-03T11:26:36.003Z,2.77
2018-06-03T11:29:07.967Z,2.50
2018-06-03T11:31:39.947Z,2.43
2018-06-03T11:34:11.960Z,2.70
2018-06-03T11:36:43.951Z,2.30
2018-06-03T11:39:15.968Z,2.30
2018-06-03T11:41:47.965Z,2.40
2018-06-03T11:44:20.096Z,2.43
2018-06-03T11:46:52.103Z,2.30
2018-06-03T11:49:24.063Z,2.07
2018-06-03T11:51:56.136Z,2.60
2018-06-03T11:54:28.121Z,2.37
2018-06-03T11:57:01.332Z,2.13
2018-06-03T11:59:40.350Z,2.07
2018-06-03T12:02:13.999Z,2.20
2018-06-03T12:04:45.965Z,2.00
2018-06-03T12:07:17.928Z,2.20
2018-06-03T12:09:49.891Z,2.27
2018-06-03T12:12:21.883Z,2.67
2018-06-03T12:14:56.015Z,2.43
2018-06-03T12:17:28.616Z,2.33
2018-06-03T12:20:00.588Z,2.40
2018-06-03T12:22:32.568Z,2.00
2018-06-03T12:25:05.624Z,2.43
2018-06-03T12:27:37.620Z,1.63
2018-06-03T12:30:09.576Z,2.50
2018-06-03T12:32:42.173Z,2.17
2018-06-03T12:35:14.121Z,2.20
2018-06-03T12:37:46.100Z,2.30
2018-06-03T12:40:18.063Z,2.53
2018-06-03T12:42:50.051Z,2.50
2018-06-03T12:45:22.060Z,2.53
2018-06-03T12:47:54.055Z,2.30
2018-06-03T12:50:26.280Z,2.70
2018-06-03T12:52:58.276Z,2.00
2018-06-03T12:55:30.285Z,2.20
2018-06-03T12:58:02.300Z,2.07
2018-06-03T13:00:34.393Z,2.40
2018-06-03T13:03:06.485Z,2.23
2018-06-03T13:05:38.436Z,2.13
2018-06-03T13:08:10.421Z,2.37
2018-06-03T13:10:42.435Z,2.10
2018-06-03T13:13:14.812Z,2.47
2018-06-03T13:15:46.807Z,2.23
2018-06-03T13:18:18.783Z,1.90
2018-06-03T13:20:50.788Z,2.20
2018-06-03T13:23:22.793Z,2.10
2018-06-03T13:25:54.822Z,2.23
2018-06-03T13:28:26.828Z,2.23
2018-06-03T13:30:58.807Z,2.30
2018-06-03T13:33:30.798Z,2.30
2018-06-03T13:36:02.809Z,2.10
2018-06-03T13:38:34.814Z,1.87
2018-06-03T13:41:06.795Z,1.90
2018-06-03T13:43:38.827Z,1.97
2018-06-03T13:46:17.662Z,2.10
2018-06-03T13:48:49.666Z,2.10
2018-06-03T13:51:21.703Z,2.53
2018-06-03T13:53:53.640Z,1.83
2018-06-03T13:56:25.659Z,1.90
2018-06-03T13:58:57.653Z,2.67
2018-06-03T14:01:29.651Z,2.10
2018-06-03T14:04:01.635Z,1.83
2018-06-03T14:06:33.624Z,1.83
2018-06-03T14:09:06.088Z,2.07
2018-06-03T14:11:38.067Z,2.40
2018-06-03T14:14:10.055Z,2.00
2018-06-03T14:16:42.048Z,2.30
2018-06-03T14:19:14.030Z,2.17
2018-06-03T14:21:45.988Z,1.87
2018-06-03T14:24:17.982Z,2.10
2018-06-03T14:26:49.946Z,2.10
2018-06-03T14:29:21.932Z,1.93
2018-06-03T14:31:53.933Z,1.77
2018-06-03T14:34:25.933Z,2.27
2018-06-03T14:36:57.903Z,2.40
2018-06-03T14:39:29.910Z,2.30
2018-06-03T14:42:01.879Z,1.90
2018-06-03T14:44:33.941Z,1.80
2018-06-03T14:47:05.867Z,1.90
2018-06-03T14:49:37.844Z,1.90
2018-06-03T14:52:09.817Z,1.83
2018-06-03T14:54:41.841Z,1.80
2018-06-03T14:57:13.803Z,1.90
2018-06-03T14:59:45.748Z,2.60
2018-06-03T15:02:18.502Z,1.93
2018-06-03T15:04:50.499Z,1.80
2018-06-03T15:07:22.460Z,2.00
2018-06-03T15:09:54.442Z,2.20
2018-06-03T15:12:26.408Z,1.97
2018-06-03T15:14:58.384Z,1.60
2018-06-03T15:17:30.375Z,1.93
2018-06-03T15:20:02.376Z,2.13
2018-06-03T15:22:34.356Z,1.80
2018-06-03T15:25:06.367Z,1.93
2018-06-03T15:27:38.346Z,1.70
2018-06-03T15:30:10.404Z,2.17
2018-06-03T15:32:42.402Z,2.13
2018-06-03T15:35:14.401Z,2.30
2018-06-03T15:37:46.387Z,1.87
2018-06-03T15:40:18.356Z,1.90
2018-06-03T15:42:50.326Z,1.90
2018-06-03T15:45:22.311Z,1.90
2018-06-03T15:47:54.295Z,1.87
2018-06-03T15:50:26.322Z,1.70
2018-06-03T15:52:58.284Z,1.73
2018-06-03T15:55:30.291Z,2.17
2018-06-03T15:58:02.263Z,2.20
2018-06-03T16:00:34.244Z,1.83
2018-06-03T16:03:06.342Z,2.23
2018-06-03T16:05:38.231Z,1.60
2018-06-03T16:08:10.215Z,2.03
2018-06-03T16:10:42.203Z,1.77
2018-06-03T16:13:14.171Z,2.00
2018-06-03T16:15:47.417Z,2.13
2018-06-03T16:18:19.401Z,2.07
2018-06-03T16:20:51.394Z,2.10
2018-06-03T16:23:23.379Z,1.80
2018-06-03T16:25:55.375Z,2.10
2018-06-03T16:28:27.357Z,2.10
2018-06-03T16:30:59.359Z,2.20
2018-06-03T16:33:31.327Z,1.90
2018-06-03T16:36:03.367Z,2.23
2018-06-03T16:38:35.324Z,2.03
2018-06-03T16:41:07.306Z,2.53
2018-06-03T16:43:39.272Z,2.50
2018-06-03T16:46:11.279Z,2.60
2018-06-03T16:48:43.278Z,2.30
2018-06-03T16:51:15.207Z,2.10
2018-06-03T16:53:47.167Z,2.47
2018-06-03T16:56:19.149Z,2.00
2018-06-03T16:58:51.108Z,2.13
2018-06-03T17:01:23.068Z,2.27
2018-06-03T17:03:55.073Z,2.70
2018-06-03T17:06:27.035Z,2.40
2018-06-03T17:08:58.995Z,2.50
2018-06-03T17:11:30.975Z,2.70
2018-06-03T17:14:02.951Z,2.40
2018-06-03T17:16:34.939Z,2.53
2018-06-03T17:19:06.935Z,2.20
2018-06-03T17:21:38.875Z,2.80
2018-06-03T17:24:10.828Z,3.10
2018-06-03T17:26:42.794Z,2.70
2018-06-03T17:29:14.743Z,2.30
2018-06-03T17:31:46.731Z,2.60
2018-06-03T17:34:18.731Z,2.60
2018-06-03T17:36:50.679Z,2.10
2018-06-03T17:39:22.727Z,2.60
2018-06-03T17:41:54.701Z,2.83
2018-06-03T17:44:26.652Z,2.60
2018-06-03T17:46:58.701Z,2.80
2018-06-03T17:49:30.595Z,2.60
2018-06-03T17:52:02.604Z,2.17
2018-06-03T17:54:34.565Z,2.40
2018-06-03T17:57:06.532Z,2.60
2018-06-03T17:59:38.477Z,2.50
2018-06-03T18:02:10.458Z,2.40
2018-06-03T18:04:42.415Z,2.57
2018-06-03T18:07:14.392Z,2.40
2018-06-03T18:09:46.347Z,2.50
2018-06-03T18:12:18.319Z,2.70
2018-06-03T18:14:50.276Z,2.80
2018-06-03T18:17:22.257Z,2.70
2018-06-03T18:19:54.211Z,2.33
2018-06-03T18:22:26.215Z,2.73
2018-06-03T18:24:58.165Z,2.60
2018-06-03T18:27:30.135Z,2.70
2018-06-03T18:30:02.123Z,2.50
2018-06-03T18:32:34.105Z,3.00
2018-06-03T18:35:06.058Z,2.90
2018-06-03T18:37:38.078Z,2.90
2018-06-03T18:40:10.044Z,3.27
2018-06-03T18:42:42.036Z,2.67
2018-06-03T18:45:13.991Z,2.90
2018-06-03T18:47:45.955Z,2.90
2018-06-03T18:50:17.945Z,3.73
2018-06-03T18:52:49.916Z,2.90
2018-06-03T18:55:21.896Z,4.10
2018-06-03T18:57:53.873Z,2.70
2018-06-03T19:00:25.824Z,2.53
2018-06-03T19:02:57.791Z,3.07
2018-06-03T19:05:29.780Z,3.10
2018-06-03T19:08:01.796Z,3.50
2018-06-03T19:10:36.724Z,3.30
2018-06-03T19:13:08.686Z,3.70
2018-06-03T19:15:40.652Z,3.60
2018-06-03T19:18:12.667Z,3.83
2018-06-03T19:20:44.615Z,3.23
2018-06-03T19:23:16.620Z,3.03
2018-06-03T19:25:48.603Z,3.50
2018-06-03T19:28:20.567Z,3.30
2018-06-03T19:30:52.527Z,3.93
2018-06-03T19:33:24.566Z,4.80
2018-06-03T19:35:56.461Z,3.70
2018-06-03T19:38:28.444Z,3.67
2018-06-03T19:41:00.407Z,4.00
2018-06-03T19:43:33.183Z,3.60
2018-06-03T19:46:05.178Z,3.40
2018-06-03T19:48:38.496Z,3.60
2018-06-03T19:51:10.502Z,3.70
2018-06-03T19:53:42.473Z,4.80
2018-06-03T19:56:14.456Z,4.00
2018-06-03T19:58:46.439Z,4.40
2018-06-03T20:01:18.404Z,4.30
2018-06-03T20:03:50.422Z,4.27
2018-06-03T20:06:22.438Z,4.00
2018-06-03T20:08:54.351Z,3.90
2018-06-03T20:11:26.340Z,4.17
2018-06-03T20:13:58.316Z,3.97
2018-06-03T20:16:30.436Z,4.60
2018-06-03T20:19:02.403Z,5.20
2018-06-03T20:21:34.395Z,5.40
2018-06-03T20:24:06.359Z,4.73
2018-06-03T20:26:38.339Z,5.50
2018-06-03T20:29:10.337Z,5.13
2018-06-03T20:31:42.293Z,5.27
2018-06-03T20:34:14.316Z,5.07
2018-06-03T20:36:46.276Z,4.90
2018-06-03T20:39:18.315Z,6.00
2018-06-03T20:41:50.259Z,6.23
2018-06-03T20:44:22.223Z,4.50
2018-06-03T20:46:54.184Z,6.70
2018-06-03T20:49:26.151Z,5.77
2018-06-03T20:51:58.108Z,5.20
2018-06-03T20:54:30.065Z,6.13
2018-06-03T20:57:02.025Z,6.13
2018-06-03T20:59:34.035Z,6.10
2018-06-03T21:02:06.010Z,6.70
2018-06-03T21:04:38.014Z,5.90
2018-06-03T21:07:09.987Z,6.23
2018-06-03T21:09:41.950Z,6.23
2018-06-03T21:12:13.959Z,6.37
2018-06-03T21:14:45.932Z,6.00
2018-06-03T21:17:17.896Z,6.10
2018-06-03T21:19:49.860Z,7.30
2018-06-03T21:22:21.819Z,6.30
2018-06-03T21:24:53.815Z,6.97
2018-06-03T21:27:25.781Z,5.87
2018-06-03T21:29:57.767Z,6.80
2018-06-03T21:32:31.000Z,6.80
2018-06-03T21:35:03.015Z,7.30
2018-06-03T21:37:34.978Z,6.50
2018-06-03T21:40:06.955Z,6.83
2018-06-03T21:42:38.918Z,7.10
2018-06-03T21:45:10.878Z,7.30
2018-06-03T21:47:42.824Z,7.60
2018-06-03T21:50:14.856Z,7.10
2018-06-03T21:52:46.832Z,6.27
2018-06-03T21:55:18.803Z,6.80
2018-06-03T21:57:50.764Z,6.47
2018-06-03T22:00:22.804Z,7.00
2018-06-03T22:02:54.791Z,7.70
2018-06-03T22:08:05.385Z,6.30
2018-06-03T22:10:37.349Z,6.80
2018-06-03T22:13:09.308Z,7.20
2018-06-03T22:15:41.268Z,6.83
2018-06-03T22:18:14.012Z,7.30
2018-06-03T22:20:45.923Z,7.60
2018-06-03T22:23:17.891Z,7.80
2018-06-03T22:25:49.859Z,7.37
2018-06-03T22:28:22.473Z,8.20
2018-06-03T22:30:54.481Z,7.87
2018-06-03T22:33:26.452Z,7.43
2018-06-03T22:35:58.407Z,7.10
2018-06-03T22:38:30.415Z,7.17
2018-06-03T22:41:02.384Z,7.10
2018-06-03T22:43:34.345Z,8.20
2018-06-03T22:46:06.328Z,8.37
2018-06-03T22:48:38.309Z,8.37
2018-06-03T22:51:10.291Z,7.93
2018-06-03T22:53:42.243Z,7.60
2018-06-03T22:56:14.226Z,8.43
2018-06-03T22:58:46.179Z,8.10
2018-06-03T23:01:18.176Z,7.90
2018-06-03T23:03:50.143Z,8.47
2018-06-03T23:06:22.119Z,7.13
2018-06-03T23:08:54.083Z,8.10
2018-06-03T23:11:26.056Z,7.70
2018-06-03T23:13:57.999Z,8.40
2018-06-03T23:16:29.988Z,8.63
2018-06-03T23:19:01.928Z,8.40
2018-06-03T23:21:33.897Z,7.70
2018-06-03T23:24:05.855Z,7.80
2018-06-03T23:26:38.523Z,8.20
2018-06-03T23:29:10.480Z,8.53
2018-06-03T23:31:42.452Z,8.17
2018-06-03T23:34:14.415Z,8.80
2018-06-03T23:36:47.694Z,8.43
2018-06-03T23:39:19.628Z,9.33
2018-06-03T23:41:51.600Z,8.60
2018-06-03T23:44:23.556Z,9.00
2018-06-03T23:46:55.531Z,9.10
2018-06-03T23:49:27.493Z,8.27
2018-06-03T23:51:59.447Z,8.80
2018-06-03T23:54:31.400Z,9.20
2018-06-03T23:57:03.411Z,8.60
2018-06-03T23:59:35.437Z,8.50
